• Join FlightAware (Why Join?)
  • Login
  • US Flag 
10:36PM EDT


 

Airport Tracker/Info


-or-


 

Live Flight TrackerFlight Track Log ✈ ASQ5750 ✈ 26-Apr-2013 ✈ KCVG - KORD

Flight Track Log - Related Links

Times and Time Zones

All times are in EDT time to prevent confusion due to time zone crossing. See the ASQ5750 flight status page for this flight to view local times or setup timezone preferences in your user account.

Time Position Orientation Groundspeed Altitude Reporting Facility
EDT Latitude Longitude Course Direction KTS MPH feet Rate Location/Type
11:39AM 39.0500 -84.6833 345° North 172 198 1,200  Level Cincinnati TRACON
11:40AM 39.0500 -84.7167 270° West 173 199 2,300 2,100 Climbing Cincinnati TRACON
11:41AM 39.1000 -84.7667 322° Northwest 265 305 4,400 2,460 Climbing Cincinnati TRACON
11:42AM 39.1667 -84.8167 330° Northwest 258 297 7,500 2,820 Climbing Cincinnati TRACON
11:43AM 38.9048 -84.7801 313° West  Level FlightAware Approximate
11:44AM 38.9499 -84.8432 313° West  Level FlightAware Approximate
11:44AM 39.2675 -84.8708 337° Northwest 273 314 11,800  Level Indianapolis Center
11:45AM 39.0072 -84.8802 345° North  Level FlightAware Approximate
11:45AM 39.3389 -84.9044 340° North 281 323 14,200  Level Indianapolis Center
11:46AM 39.4128 -84.9394 340° North 283 326 16,600 2,040 Climbing Indianapolis Center
11:47AM 39.5025 -84.9842 339° North 293 337 18,500 1,620 Climbing Indianapolis Center
11:48AM 39.5747 -85.0344 332° Northwest 294 338 20,000 1,500 Climbing Indianapolis Center
11:49AM 39.6500 -85.0869 332° Northwest 304 350 21,700 960 Climbing Indianapolis Center
11:50AM 39.7258 -85.1389 332° Northwest 306 352 22,000 120 Climbing Indianapolis Center
11:51AM 39.8036 -85.1936 332° Northwest 314 361 22,000  Level Indianapolis Center
11:52AM 39.8814 -85.2467 332° Northwest 315 362 22,000  Level Indianapolis Center
11:53AM 39.9692 -85.3083 332° Northwest 307 353 22,000  Level Indianapolis Center
11:54AM 40.0439 -85.3608 332° Northwest 304 350 22,000  Level Indianapolis Center
11:55AM 40.1172 -85.4128 332° Northwest 301 346 22,000  Level Indianapolis Center
11:56AM 40.1675 -85.4756 316° Northwest 313 360 22,000  Level Chicago Center
11:57AM 40.2300 -85.5644 313° West 330 380 22,000  Level Chicago Center
11:58AM 40.2997 -85.6592 314° West 353 406 22,000  Level Chicago Center
11:59AM 40.3833 -85.7775 313° West 375 432 22,000  Level Chicago Center
12:00PM 40.4572 -85.8806 313° West 384 442 22,000  Level Chicago Center
12:01PM 40.5317 -85.9872 313° West 393 452 22,000  Level Chicago Center
12:02PM 40.6081 -86.0939 313° West 399 459 22,000  Level Chicago Center
12:03PM 40.6833 -86.2028 312° West 401 461 22,000  Level Chicago Center
12:04PM 40.7553 -86.3061 313° West 399 459 22,000  Level Chicago Center
12:05PM 40.8456 -86.4378 312° West 403 464 22,000  Level Chicago Center
12:06PM 40.9211 -86.5467 313° West 399 459 22,000 -1,020 Level Chicago Center
12:07PM 40.9969 -86.6556 313° West 401 461 19,900 -2,100 Descending Chicago Center
12:08PM 41.0775 -86.7706 313° West 399 459 17,700 -2,100 Descending Chicago Center
12:09PM 41.1469 -86.8711 313° West 374 430 15,600 -1,800 Descending Chicago Center
12:10PM 41.2103 -86.9658 312° West 350 403 14,100 -1,500 Descending Chicago Center
12:11PM 41.2750 -87.0617 312° West 350 403 12,600 -1,500 Descending Chicago Center
12:12PM 41.3394 -87.1550 313° West 347 399 11,100 -840 Descending Chicago Center
12:13PM 41.4000 -87.2333 316° Northwest 330 380 11,100  Level Chicago TRACON
12:14PM 41.4667 -87.3167 317° Northwest 338 389 11,100  Level Chicago TRACON
12:16PM 41.5676 -87.4248 320° Northwest  Level FlightAware Approximate
12:16PM 41.6167 -87.4833 320° Northwest 288 331 11,100  Level Chicago TRACON
12:16PM 41.6206 -87.4878 319° Northwest 300 345 11,000  Descending Chicago Center
12:17PM 41.6789 -87.5531 320° Northwest 279 321 11,100  Climbing Chicago Center
12:19PM 41.7531 -87.6300 322° Northwest 290 334 11,000 -540 Descending Chicago Center
12:20PM 41.8306 -87.6092 11° North 298 343 10,100 -1,140 Descending Chicago Center
12:20PM 41.8667 -87.6333 334° Northwest 255 293 9,300 -1,560 Descending Chicago TRACON
12:21PM 41.9167 -87.7000 315° West 236 272 7,800 -1,200 Descending Chicago TRACON
12:22PM 41.9833 -87.7000 360° North 244 281 6,900 -1,260 Descending Chicago TRACON
12:23PM 42.0333 -87.6667 26° Northeast 242 278 5,300 -1,380 Descending Chicago TRACON
12:24PM 42.1000 -87.6333 20° North 213 245 4,200 -780 Descending Chicago TRACON
12:25PM 42.1306 -87.6342 359° North 221 254 4,000 -120 Descending Chicago Center
12:26PM 42.1622 -87.6861 309° West 203 234 4,000  Level Chicago Center
12:27PM 42.1450 -87.7369 245° Southwest 162 186 4,000 -120 Level Chicago Center
12:28PM 42.1133 -87.7711 219° Southwest 153 176 3,800 -660 Descending Chicago Center
12:29PM 42.0731 -87.8144 219° Southwest 153 176 2,700 -1,080 Descending Chicago Center